<?xml version="1.0" encoding="UTF-8"?>
<gpx xmlns="http://www.topografix.com/GPX/1/1" xmlns:gpsies="http://www.gpsies.com/GPX/1/0" creator="GPSies http://www.gpsies.com - &amp;#1055;&amp;#1086;&amp;#1075;&amp;#1088;&amp;#1072;&amp;#1085;&amp;#1080;&amp;#1095;&amp;#1085;&amp;#1099;&amp;#1081;200" version="1.1" xmlns:xsi="http://www.w3.org/2001/XMLSchema-instance" xsi:schemaLocation="http://www.topografix.com/GPX/1/1 http://www.topografix.com/GPX/1/1/gpx.xsd http://www.gpsies.com/GPX/1/0 http://www.gpsies.com/gpsies.xsd">
  <metadata>
    <name>Пограничный200</name>
    <author>
      <name>U_N_E</name>
      <link href="http://www.gpsies.com/mapUser.do?username=U_N_E">
        <text>U_N_E on GPSies.com</text>
        <type>GPSiesUserOnWeb</type>
      </link>
    </author>
    <link href="http://www.gpsies.com/map.do?fileId=lciaflfciiwtaawm">
      <text>Пограничный200 on GPSies.com</text>
      <type>trackOnWeb</type>
    </link>
    <time>2017-08-31T21:37:58Z</time>
    <extensions>
      <gpsies:property>one-way trip</gpsies:property>
      <gpsies:trackLengthMeter>200037.1658159583</gpsies:trackLengthMeter>
      <gpsies:totalAscentMeter>1414.0</gpsies:totalAscentMeter>
      <gpsies:totalDescentMeter>1410.0</gpsies:totalDescentMeter>
      <gpsies:minHeightMeter>94.0</gpsies:minHeightMeter>
      <gpsies:maxHeightMeter>248.0</gpsies:maxHeightMeter>
    </extensions>
  </metadata>
  <wpt lat="51.88915339" lon="39.17432785">
    <ele>117.00000</ele>
    <name>КП1</name>
    <sym>generic</sym>
    <type>Generic</type>
  </wpt>
  <wpt lat="51.96986524" lon="38.31696510">
    <ele>181.00000</ele>
    <name>КП2</name>
    <sym>generic</sym>
    <type>Generic</type>
  </wpt>
  <wpt lat="51.74286833" lon="38.65239143">
    <ele>160.00000</ele>
    <name>КП3</name>
    <sym>generic</sym>
    <type>Generic</type>
  </wpt>
  <wpt lat="51.64609294" lon="39.13467407">
    <ele>164.00000</ele>
    <name>Финиш</name>
    <sym>generic</sym>
    <type>Generic</type>
  </wpt>
  <wpt lat="51.66065705" lon="39.20106410">
    <ele>156.00000</ele>
    <name>Старт</name>
    <sym>generic</sym>
    <type>Generic</type>
  </wpt>
  <trk>
    <name>Пограничный200 on GPSies.com</name>
    <link href="http://www.gpsies.com/map.do?fileId=lciaflfciiwtaawm">
      <type>trackOnWeb</type>
    </link>
    <link href="http://www.gpsies.com/charts/lc/map/lciaflfciiwtaawm_map.png">
      <type>elevationChartUrlMap</type>
    </link>
    <link href="http://www.gpsies.com/charts/lc/mapThumb/lciaflfciiwtaawm_mapThumb.png">
      <type>elevationChartUrlMapThumb</type>
    </link>
    <link href="http://www.gpsies.com/charts/lc/tab/lciaflfciiwtaawm_tab.png">
      <type>elevationChartUrlTab</type>
    </link>
    <trkseg>
      <trkpt lat="51.66055050" lon="39.20153610">
        <ele>158.00000</ele>
        <time>2010-01-01T00:00:00Z</time>
      </trkpt>
      <trkpt lat="51.67383260" lon="39.18548580">
        <ele>154.00000</ele>
        <time>2010-01-01T00:11:04Z</time>
      </trkpt>
      <trkpt lat="51.71235240" lon="39.18072220">
        <ele>161.00000</ele>
        <time>2010-01-01T00:36:50Z</time>
      </trkpt>
      <trkpt lat="51.71837480" lon="39.18005700">
        <ele>167.00000</ele>
        <time>2010-01-01T00:40:52Z</time>
      </trkpt>
      <trkpt lat="51.72229620" lon="39.17967080">
        <ele>168.00000</ele>
        <time>2010-01-01T00:43:29Z</time>
      </trkpt>
      <trkpt lat="51.72685530" lon="39.17913430">
        <ele>171.00000</ele>
        <time>2010-01-01T00:46:32Z</time>
      </trkpt>
      <trkpt lat="51.73048370" lon="39.17930600">
        <ele>166.00000</ele>
        <time>2010-01-01T00:48:58Z</time>
      </trkpt>
      <trkpt lat="51.73233090" lon="39.17990680">
        <ele>165.00000</ele>
        <time>2010-01-01T00:50:13Z</time>
      </trkpt>
      <trkpt lat="51.74257600" lon="39.18340440">
        <ele>174.00000</ele>
        <time>2010-01-01T00:57:12Z</time>
      </trkpt>
      <trkpt lat="51.75365560" lon="39.18720240">
        <ele>167.00000</ele>
        <time>2010-01-01T01:04:46Z</time>
      </trkpt>
      <trkpt lat="51.76815850" lon="39.19209480">
        <ele>165.00000</ele>
        <time>2010-01-01T01:14:39Z</time>
      </trkpt>
      <trkpt lat="51.78032040" lon="39.19647210">
        <ele>164.00000</ele>
        <time>2010-01-01T01:22:57Z</time>
      </trkpt>
      <trkpt lat="51.78724970" lon="39.19887540">
        <ele>158.00000</ele>
        <time>2010-01-01T01:27:41Z</time>
      </trkpt>
      <trkpt lat="51.78732930" lon="39.19818870">
        <ele>161.00000</ele>
        <time>2010-01-01T01:27:58Z</time>
      </trkpt>
      <trkpt lat="51.78496660" lon="39.19711580">
        <ele>165.00000</ele>
        <time>2010-01-01T01:29:37Z</time>
      </trkpt>
      <trkpt lat="51.78504620" lon="39.18711660">
        <ele>168.00000</ele>
        <time>2010-01-01T01:33:44Z</time>
      </trkpt>
      <trkpt lat="51.78491350" lon="39.17952060">
        <ele>175.00000</ele>
        <time>2010-01-01T01:36:53Z</time>
      </trkpt>
      <trkpt lat="51.78947950" lon="39.15596000">
        <ele>158.00000</ele>
        <time>2010-01-01T01:47:04Z</time>
      </trkpt>
      <trkpt lat="51.79019620" lon="39.14608950">
        <ele>144.00000</ele>
        <time>2010-01-01T01:51:10Z</time>
      </trkpt>
      <trkpt lat="51.79149690" lon="39.14617530">
        <ele>143.00000</ele>
        <time>2010-01-01T01:52:02Z</time>
      </trkpt>
      <trkpt lat="51.79282410" lon="39.14737700">
        <ele>143.00000</ele>
        <time>2010-01-01T01:53:03Z</time>
      </trkpt>
      <trkpt lat="51.79624810" lon="39.14754860">
        <ele>144.00000</ele>
        <time>2010-01-01T01:55:20Z</time>
      </trkpt>
      <trkpt lat="51.79980450" lon="39.14390080">
        <ele>133.00000</ele>
        <time>2010-01-01T01:58:09Z</time>
      </trkpt>
      <trkpt lat="51.80198070" lon="39.14261340">
        <ele>129.00000</ele>
        <time>2010-01-01T01:59:41Z</time>
      </trkpt>
      <trkpt lat="51.80320140" lon="39.14312830">
        <ele>128.00000</ele>
        <time>2010-01-01T02:00:32Z</time>
      </trkpt>
      <trkpt lat="51.80532430" lon="39.14072510">
        <ele>122.00000</ele>
        <time>2010-01-01T02:02:16Z</time>
      </trkpt>
      <trkpt lat="51.80872080" lon="39.13952350">
        <ele>119.00000</ele>
        <time>2010-01-01T02:04:35Z</time>
      </trkpt>
      <trkpt lat="51.80986180" lon="39.13973800">
        <ele>123.00000</ele>
        <time>2010-01-01T02:05:21Z</time>
      </trkpt>
      <trkpt lat="51.81039250" lon="39.13948050">
        <ele>125.00000</ele>
        <time>2010-01-01T02:05:43Z</time>
      </trkpt>
      <trkpt lat="51.82089830" lon="39.14261340">
        <ele>113.00000</ele>
        <time>2010-01-01T02:12:51Z</time>
      </trkpt>
      <trkpt lat="51.82312650" lon="39.14239880">
        <ele>102.00000</ele>
        <time>2010-01-01T02:14:20Z</time>
      </trkpt>
      <trkpt lat="51.82402840" lon="39.14334290">
        <ele>103.00000</ele>
        <time>2010-01-01T02:15:03Z</time>
      </trkpt>
      <trkpt lat="51.82506290" lon="39.14407250">
        <ele>107.00000</ele>
        <time>2010-01-01T02:15:48Z</time>
      </trkpt>
      <trkpt lat="51.82561990" lon="39.14523120">
        <ele>107.00000</ele>
        <time>2010-01-01T02:16:24Z</time>
      </trkpt>
      <trkpt lat="51.82641560" lon="39.14497370">
        <ele>106.00000</ele>
        <time>2010-01-01T02:16:57Z</time>
      </trkpt>
      <trkpt lat="51.82731740" lon="39.14454460">
        <ele>104.00000</ele>
        <time>2010-01-01T02:17:35Z</time>
      </trkpt>
      <trkpt lat="51.82832530" lon="39.14437290">
        <ele>108.00000</ele>
        <time>2010-01-01T02:18:15Z</time>
      </trkpt>
      <trkpt lat="51.82928010" lon="39.14334290">
        <ele>105.00000</ele>
        <time>2010-01-01T02:19:01Z</time>
      </trkpt>
      <trkpt lat="51.83097740" lon="39.14261340">
        <ele>102.00000</ele>
        <time>2010-01-01T02:20:11Z</time>
      </trkpt>
      <trkpt lat="51.83182610" lon="39.14407250">
        <ele>105.00000</ele>
        <time>2010-01-01T02:21:01Z</time>
      </trkpt>
      <trkpt lat="51.83230350" lon="39.14420120">
        <ele>102.00000</ele>
        <time>2010-01-01T02:21:20Z</time>
      </trkpt>
      <trkpt lat="51.83455760" lon="39.14347170">
        <ele>103.00000</ele>
        <time>2010-01-01T02:22:52Z</time>
      </trkpt>
      <trkpt lat="51.83742160" lon="39.14390080">
        <ele>107.00000</ele>
        <time>2010-01-01T02:24:48Z</time>
      </trkpt>
      <trkpt lat="51.83948990" lon="39.14317130">
        <ele>107.00000</ele>
        <time>2010-01-01T02:26:12Z</time>
      </trkpt>
      <trkpt lat="51.84420950" lon="39.14540290">
        <ele>110.00000</ele>
        <time>2010-01-01T02:29:29Z</time>
      </trkpt>
      <trkpt lat="51.84863690" lon="39.14763450">
        <ele>102.00000</ele>
        <time>2010-01-01T02:32:35Z</time>
      </trkpt>
      <trkpt lat="51.85391220" lon="39.15081020">
        <ele>96.000000</ele>
        <time>2010-01-01T02:36:20Z</time>
      </trkpt>
      <trkpt lat="51.85248080" lon="39.15518760">
        <ele>102.00000</ele>
        <time>2010-01-01T02:38:22Z</time>
      </trkpt>
      <trkpt lat="51.86146620" lon="39.16630260">
        <ele>117.00000</ele>
        <time>2010-01-01T02:45:55Z</time>
      </trkpt>
      <trkpt lat="51.86562700" lon="39.17068000">
        <ele>110.00000</ele>
        <time>2010-01-01T02:49:14Z</time>
      </trkpt>
      <trkpt lat="51.87288760" lon="39.17321200">
        <ele>111.00000</ele>
        <time>2010-01-01T02:54:11Z</time>
      </trkpt>
      <trkpt lat="51.88125960" lon="39.17291160">
        <ele>116.00000</ele>
        <time>2010-01-01T02:59:46Z</time>
      </trkpt>
      <trkpt lat="51.88589540" lon="39.17243950">
        <ele>111.00000</ele>
        <time>2010-01-01T03:02:52Z</time>
      </trkpt>
      <trkpt lat="51.88801440" lon="39.17338370">
        <ele>117.00000</ele>
        <time>2010-01-01T03:04:20Z</time>
      </trkpt>
      <trkpt lat="51.88812040" lon="39.17595860">
        <ele>119.00000</ele>
        <time>2010-01-01T03:05:24Z</time>
      </trkpt>
      <trkpt lat="51.89074250" lon="39.17733190">
        <ele>124.00000</ele>
        <time>2010-01-01T03:07:14Z</time>
      </trkpt>
      <trkpt lat="51.89084850" lon="39.18256750">
        <ele>130.00000</ele>
        <time>2010-01-01T03:09:24Z</time>
      </trkpt>
      <trkpt lat="51.89209330" lon="39.17994970">
        <ele>125.00000</ele>
        <time>2010-01-01T03:10:45Z</time>
      </trkpt>
      <trkpt lat="51.89317910" lon="39.17308330">
        <ele>115.00000</ele>
        <time>2010-01-01T03:13:40Z</time>
      </trkpt>
      <trkpt lat="51.89656900" lon="39.15651790">
        <ele>99.000000</ele>
        <time>2010-01-01T03:20:52Z</time>
      </trkpt>
      <trkpt lat="51.89842270" lon="39.14484500">
        <ele>102.00000</ele>
        <time>2010-01-01T03:25:49Z</time>
      </trkpt>
      <trkpt lat="51.90673710" lon="39.12673470">
        <ele>152.00000</ele>
        <time>2010-01-01T03:35:07Z</time>
      </trkpt>
      <trkpt lat="51.91592340" lon="39.10579200">
        <ele>169.00000</ele>
        <time>2010-01-01T03:45:41Z</time>
      </trkpt>
      <trkpt lat="51.91748520" lon="39.10407540">
        <ele>168.00000</ele>
        <time>2010-01-01T03:46:57Z</time>
      </trkpt>
      <trkpt lat="51.92145550" lon="39.10184380">
        <ele>167.00000</ele>
        <time>2010-01-01T03:49:45Z</time>
      </trkpt>
      <trkpt lat="51.92611360" lon="39.09047120">
        <ele>166.00000</ele>
        <time>2010-01-01T03:55:22Z</time>
      </trkpt>
      <trkpt lat="51.92868060" lon="39.08536430">
        <ele>165.00000</ele>
        <time>2010-01-01T03:58:05Z</time>
      </trkpt>
      <trkpt lat="51.93307330" lon="39.08030030">
        <ele>164.00000</ele>
        <time>2010-01-01T04:01:41Z</time>
      </trkpt>
      <trkpt lat="51.93878850" lon="39.06394950">
        <ele>137.00000</ele>
        <time>2010-01-01T04:09:24Z</time>
      </trkpt>
      <trkpt lat="51.94024360" lon="39.05819890">
        <ele>128.00000</ele>
        <time>2010-01-01T04:11:58Z</time>
      </trkpt>
      <trkpt lat="51.94016420" lon="39.05257700">
        <ele>142.00000</ele>
        <time>2010-01-01T04:14:17Z</time>
      </trkpt>
      <trkpt lat="51.93966160" lon="39.03704160">
        <ele>167.00000</ele>
        <time>2010-01-01T04:20:40Z</time>
      </trkpt>
      <trkpt lat="51.94161930" lon="39.02493950">
        <ele>168.00000</ele>
        <time>2010-01-01T04:25:49Z</time>
      </trkpt>
      <trkpt lat="51.94362990" lon="39.01360980">
        <ele>169.00000</ele>
        <time>2010-01-01T04:30:40Z</time>
      </trkpt>
      <trkpt lat="51.94331250" lon="39.00738710">
        <ele>167.00000</ele>
        <time>2010-01-01T04:33:14Z</time>
      </trkpt>
      <trkpt lat="51.94143410" lon="38.99236670">
        <ele>169.00000</ele>
        <time>2010-01-01T04:39:32Z</time>
      </trkpt>
      <trkpt lat="51.94027010" lon="38.98640150">
        <ele>176.00000</ele>
        <time>2010-01-01T04:42:07Z</time>
      </trkpt>
      <trkpt lat="51.93717450" lon="38.97987840">
        <ele>179.00000</ele>
        <time>2010-01-01T04:45:30Z</time>
      </trkpt>
      <trkpt lat="51.93635430" lon="38.96142480">
        <ele>185.00000</ele>
        <time>2010-01-01T04:53:07Z</time>
      </trkpt>
      <trkpt lat="51.93735970" lon="38.94121170">
        <ele>187.00000</ele>
        <time>2010-01-01T05:01:27Z</time>
      </trkpt>
      <trkpt lat="51.94275690" lon="38.93146990">
        <ele>187.00000</ele>
        <time>2010-01-01T05:06:50Z</time>
      </trkpt>
      <trkpt lat="51.95103660" lon="38.91790860">
        <ele>194.00000</ele>
        <time>2010-01-01T05:14:41Z</time>
      </trkpt>
      <trkpt lat="51.95727840" lon="38.90748020">
        <ele>197.00000</ele>
        <time>2010-01-01T05:20:40Z</time>
      </trkpt>
      <trkpt lat="51.96391600" lon="38.89619350">
        <ele>204.00000</ele>
        <time>2010-01-01T05:27:05Z</time>
      </trkpt>
      <trkpt lat="51.97047330" lon="38.88546460">
        <ele>196.00000</ele>
        <time>2010-01-01T05:33:18Z</time>
      </trkpt>
      <trkpt lat="51.96822590" lon="38.88237470">
        <ele>196.00000</ele>
        <time>2010-01-01T05:35:15Z</time>
      </trkpt>
      <trkpt lat="51.96428620" lon="38.86048790">
        <ele>207.00000</ele>
        <time>2010-01-01T05:44:38Z</time>
      </trkpt>
      <trkpt lat="51.96235590" lon="38.85087490">
        <ele>211.00000</ele>
        <time>2010-01-01T05:48:47Z</time>
      </trkpt>
      <trkpt lat="51.95450140" lon="38.82285110">
        <ele>212.00000</ele>
        <time>2010-01-01T06:01:27Z</time>
      </trkpt>
      <trkpt lat="51.95106300" lon="38.81109230">
        <ele>211.00000</ele>
        <time>2010-01-01T06:06:48Z</time>
      </trkpt>
      <trkpt lat="51.94119600" lon="38.79448410">
        <ele>218.00000</ele>
        <time>2010-01-01T06:16:17Z</time>
      </trkpt>
      <trkpt lat="51.93159150" lon="38.78821840">
        <ele>225.00000</ele>
        <time>2010-01-01T06:23:11Z</time>
      </trkpt>
      <trkpt lat="51.92428750" lon="38.78401270">
        <ele>222.00000</ele>
        <time>2010-01-01T06:28:22Z</time>
      </trkpt>
      <trkpt lat="51.92026440" lon="38.78066530">
        <ele>216.00000</ele>
        <time>2010-01-01T06:31:23Z</time>
      </trkpt>
      <trkpt lat="51.91925860" lon="38.77976410">
        <ele>214.00000</ele>
        <time>2010-01-01T06:32:09Z</time>
      </trkpt>
      <trkpt lat="51.90718720" lon="38.76324170">
        <ele>213.00000</ele>
        <time>2010-01-01T06:42:41Z</time>
      </trkpt>
      <trkpt lat="51.90406290" lon="38.75590320">
        <ele>217.00000</ele>
        <time>2010-01-01T06:46:21Z</time>
      </trkpt>
      <trkpt lat="51.89299380" lon="38.74770640">
        <ele>199.00000</ele>
        <time>2010-01-01T06:54:28Z</time>
      </trkpt>
      <trkpt lat="51.89741640" lon="38.74096870">
        <ele>174.00000</ele>
        <time>2010-01-01T06:58:31Z</time>
      </trkpt>
      <trkpt lat="51.90011750" lon="38.73384470">
        <ele>178.00000</ele>
        <time>2010-01-01T07:01:58Z</time>
      </trkpt>
      <trkpt lat="51.89529780" lon="38.72981070">
        <ele>167.00000</ele>
        <time>2010-01-01T07:05:35Z</time>
      </trkpt>
      <trkpt lat="51.89466220" lon="38.72843740">
        <ele>173.00000</ele>
        <time>2010-01-01T07:06:17Z</time>
      </trkpt>
      <trkpt lat="51.89545670" lon="38.72122760">
        <ele>185.00000</ele>
        <time>2010-01-01T07:09:18Z</time>
      </trkpt>
      <trkpt lat="51.89625120" lon="38.71195790">
        <ele>205.00000</ele>
        <time>2010-01-01T07:13:09Z</time>
      </trkpt>
      <trkpt lat="51.89556270" lon="38.70054240">
        <ele>219.00000</ele>
        <time>2010-01-01T07:17:53Z</time>
      </trkpt>
      <trkpt lat="51.89566860" lon="38.69865410">
        <ele>220.00000</ele>
        <time>2010-01-01T07:18:40Z</time>
      </trkpt>
      <trkpt lat="51.89990570" lon="38.69367590">
        <ele>222.00000</ele>
        <time>2010-01-01T07:22:09Z</time>
      </trkpt>
      <trkpt lat="51.90779610" lon="38.68629450">
        <ele>224.00000</ele>
        <time>2010-01-01T07:28:14Z</time>
      </trkpt>
      <trkpt lat="51.92351990" lon="38.67745390">
        <ele>234.00000</ele>
        <time>2010-01-01T07:39:20Z</time>
      </trkpt>
      <trkpt lat="51.93055950" lon="38.67367740">
        <ele>236.00000</ele>
        <time>2010-01-01T07:44:17Z</time>
      </trkpt>
      <trkpt lat="51.93611620" lon="38.66449350">
        <ele>244.00000</ele>
        <time>2010-01-01T07:49:34Z</time>
      </trkpt>
      <trkpt lat="51.94288920" lon="38.65230560">
        <ele>242.00000</ele>
        <time>2010-01-01T07:56:19Z</time>
      </trkpt>
      <trkpt lat="51.94400030" lon="38.64629740">
        <ele>237.00000</ele>
        <time>2010-01-01T07:58:54Z</time>
      </trkpt>
      <trkpt lat="51.94754500" lon="38.62226480">
        <ele>232.00000</ele>
        <time>2010-01-01T08:09:04Z</time>
      </trkpt>
      <trkpt lat="51.95019020" lon="38.60527030">
        <ele>220.00000</ele>
        <time>2010-01-01T08:16:16Z</time>
      </trkpt>
      <trkpt lat="51.95071920" lon="38.59703060">
        <ele>236.00000</ele>
        <time>2010-01-01T08:19:41Z</time>
      </trkpt>
      <trkpt lat="51.95288810" lon="38.57282630">
        <ele>248.00000</ele>
        <time>2010-01-01T08:29:44Z</time>
      </trkpt>
      <trkpt lat="51.96129810" lon="38.55008120">
        <ele>231.00000</ele>
        <time>2010-01-01T08:40:39Z</time>
      </trkpt>
      <trkpt lat="51.96103370" lon="38.54681960">
        <ele>233.00000</ele>
        <time>2010-01-01T08:42:00Z</time>
      </trkpt>
      <trkpt lat="51.95283520" lon="38.52124210">
        <ele>232.00000</ele>
        <time>2010-01-01T08:53:51Z</time>
      </trkpt>
      <trkpt lat="51.94410610" lon="38.49935530">
        <ele>239.00000</ele>
        <time>2010-01-01T09:04:34Z</time>
      </trkpt>
      <trkpt lat="51.94263790" lon="38.49995610">
        <ele>242.00000</ele>
        <time>2010-01-01T09:05:35Z</time>
      </trkpt>
      <trkpt lat="51.94189710" lon="38.49770300">
        <ele>240.00000</ele>
        <time>2010-01-01T09:06:38Z</time>
      </trkpt>
      <trkpt lat="51.94217490" lon="38.48931310">
        <ele>234.00000</ele>
        <time>2010-01-01T09:10:05Z</time>
      </trkpt>
      <trkpt lat="51.94290240" lon="38.48675960">
        <ele>233.00000</ele>
        <time>2010-01-01T09:11:15Z</time>
      </trkpt>
      <trkpt lat="51.94632820" lon="38.47656720">
        <ele>235.00000</ele>
        <time>2010-01-01T09:16:01Z</time>
      </trkpt>
      <trkpt lat="51.95579740" lon="38.45360750">
        <ele>224.00000</ele>
        <time>2010-01-01T09:27:23Z</time>
      </trkpt>
      <trkpt lat="51.96135100" lon="38.44137660">
        <ele>213.00000</ele>
        <time>2010-01-01T09:33:37Z</time>
      </trkpt>
      <trkpt lat="51.96277900" lon="38.43489640">
        <ele>210.00000</ele>
        <time>2010-01-01T09:36:27Z</time>
      </trkpt>
      <trkpt lat="51.96299050" lon="38.42622750">
        <ele>204.00000</ele>
        <time>2010-01-01T09:40:01Z</time>
      </trkpt>
      <trkpt lat="51.96444480" lon="38.42167850">
        <ele>193.00000</ele>
        <time>2010-01-01T09:42:07Z</time>
      </trkpt>
      <trkpt lat="51.96616360" lon="38.41841690">
        <ele>190.00000</ele>
        <time>2010-01-01T09:43:53Z</time>
      </trkpt>
      <trkpt lat="51.96896630" lon="38.41464040">
        <ele>197.00000</ele>
        <time>2010-01-01T09:46:19Z</time>
      </trkpt>
      <trkpt lat="51.97073770" lon="38.40730190">
        <ele>203.00000</ele>
        <time>2010-01-01T09:49:34Z</time>
      </trkpt>
      <trkpt lat="51.97134580" lon="38.40331070">
        <ele>201.00000</ele>
        <time>2010-01-01T09:51:15Z</time>
      </trkpt>
      <trkpt lat="51.97242970" lon="38.38408470">
        <ele>206.00000</ele>
        <time>2010-01-01T09:59:11Z</time>
      </trkpt>
      <trkpt lat="51.97324930" lon="38.36468690">
        <ele>198.00000</ele>
        <time>2010-01-01T10:07:10Z</time>
      </trkpt>
      <trkpt lat="51.97282630" lon="38.34292880">
        <ele>175.00000</ele>
        <time>2010-01-01T10:16:07Z</time>
      </trkpt>
      <trkpt lat="51.97158370" lon="38.33202830">
        <ele>179.00000</ele>
        <time>2010-01-01T10:20:41Z</time>
      </trkpt>
      <trkpt lat="51.97005030" lon="38.32554810">
        <ele>181.00000</ele>
        <time>2010-01-01T10:23:32Z</time>
      </trkpt>
      <trkpt lat="51.96941570" lon="38.31881040">
        <ele>184.00000</ele>
        <time>2010-01-01T10:26:20Z</time>
      </trkpt>
      <trkpt lat="51.96962720" lon="38.31082820">
        <ele>186.00000</ele>
        <time>2010-01-01T10:29:37Z</time>
      </trkpt>
      <trkpt lat="51.96997090" lon="38.30593580">
        <ele>187.00000</ele>
        <time>2010-01-01T10:31:38Z</time>
      </trkpt>
      <trkpt lat="51.96896630" lon="38.30602160">
        <ele>188.00000</ele>
        <time>2010-01-01T10:32:19Z</time>
      </trkpt>
      <trkpt lat="51.96854320" lon="38.30550670">
        <ele>188.00000</ele>
        <time>2010-01-01T10:32:40Z</time>
      </trkpt>
      <trkpt lat="51.96162870" lon="38.30484150">
        <ele>202.00000</ele>
        <time>2010-01-01T10:37:17Z</time>
      </trkpt>
      <trkpt lat="51.96597850" lon="38.29276080">
        <ele>201.00000</ele>
        <time>2010-01-01T10:43:02Z</time>
      </trkpt>
      <trkpt lat="51.97175550" lon="38.29662320">
        <ele>192.00000</ele>
        <time>2010-01-01T10:47:12Z</time>
      </trkpt>
      <trkpt lat="51.97371190" lon="38.29780340">
        <ele>188.00000</ele>
        <time>2010-01-01T10:48:36Z</time>
      </trkpt>
      <trkpt lat="51.96997090" lon="38.30574270">
        <ele>187.00000</ele>
        <time>2010-01-01T10:52:42Z</time>
      </trkpt>
      <trkpt lat="51.96960080" lon="38.31911080">
        <ele>183.00000</ele>
        <time>2010-01-01T10:58:12Z</time>
      </trkpt>
      <trkpt lat="51.97006350" lon="38.32589140">
        <ele>181.00000</ele>
        <time>2010-01-01T11:01:01Z</time>
      </trkpt>
      <trkpt lat="51.97093600" lon="38.33069800">
        <ele>181.00000</ele>
        <time>2010-01-01T11:03:04Z</time>
      </trkpt>
      <trkpt lat="51.97170270" lon="38.33239310">
        <ele>179.00000</ele>
        <time>2010-01-01T11:03:56Z</time>
      </trkpt>
      <trkpt lat="51.97268090" lon="38.34303610">
        <ele>175.00000</ele>
        <time>2010-01-01T11:08:21Z</time>
      </trkpt>
      <trkpt lat="51.97309060" lon="38.36262700">
        <ele>196.00000</ele>
        <time>2010-01-01T11:16:25Z</time>
      </trkpt>
      <trkpt lat="51.97323610" lon="38.36992260">
        <ele>200.00000</ele>
        <time>2010-01-01T11:19:25Z</time>
      </trkpt>
      <trkpt lat="51.97205960" lon="38.38882680">
        <ele>206.00000</ele>
        <time>2010-01-01T11:27:13Z</time>
      </trkpt>
      <trkpt lat="51.97121360" lon="38.40311760">
        <ele>201.00000</ele>
        <time>2010-01-01T11:33:07Z</time>
      </trkpt>
      <trkpt lat="51.96983880" lon="38.41249460">
        <ele>202.00000</ele>
        <time>2010-01-01T11:37:05Z</time>
      </trkpt>
      <trkpt lat="51.96867540" lon="38.41549870">
        <ele>195.00000</ele>
        <time>2010-01-01T11:38:33Z</time>
      </trkpt>
      <trkpt lat="51.96529100" lon="38.41970440">
        <ele>187.00000</ele>
        <time>2010-01-01T11:41:23Z</time>
      </trkpt>
      <trkpt lat="51.96357220" lon="38.42446800">
        <ele>200.00000</ele>
        <time>2010-01-01T11:43:39Z</time>
      </trkpt>
      <trkpt lat="51.96305660" lon="38.42524050">
        <ele>202.00000</ele>
        <time>2010-01-01T11:44:08Z</time>
      </trkpt>
      <trkpt lat="51.96267320" lon="38.43476770">
        <ele>209.00000</ele>
        <time>2010-01-01T11:48:03Z</time>
      </trkpt>
      <trkpt lat="51.96117910" lon="38.44195600">
        <ele>214.00000</ele>
        <time>2010-01-01T11:51:10Z</time>
      </trkpt>
      <trkpt lat="51.95471300" lon="38.45575330">
        <ele>224.00000</ele>
        <time>2010-01-01T11:58:18Z</time>
      </trkpt>
      <trkpt lat="51.94659270" lon="38.47562310">
        <ele>234.00000</ele>
        <time>2010-01-01T12:08:06Z</time>
      </trkpt>
      <trkpt lat="51.94226750" lon="38.48871230">
        <ele>234.00000</ele>
        <time>2010-01-01T12:14:12Z</time>
      </trkpt>
      <trkpt lat="51.94177810" lon="38.49823950">
        <ele>240.00000</ele>
        <time>2010-01-01T12:18:08Z</time>
      </trkpt>
      <trkpt lat="51.94241300" lon="38.50002050">
        <ele>242.00000</ele>
        <time>2010-01-01T12:18:59Z</time>
      </trkpt>
      <trkpt lat="51.93982030" lon="38.50072860">
        <ele>239.00000</ele>
        <time>2010-01-01T12:20:44Z</time>
      </trkpt>
      <trkpt lat="51.93753170" lon="38.50321760">
        <ele>238.00000</ele>
        <time>2010-01-01T12:22:35Z</time>
      </trkpt>
      <trkpt lat="51.93509750" lon="38.50643630">
        <ele>235.00000</ele>
        <time>2010-01-01T12:24:40Z</time>
      </trkpt>
      <trkpt lat="51.92817780" lon="38.51147890">
        <ele>220.00000</ele>
        <time>2010-01-01T12:29:44Z</time>
      </trkpt>
      <trkpt lat="51.92688100" lon="38.51231570">
        <ele>218.00000</ele>
        <time>2010-01-01T12:30:40Z</time>
      </trkpt>
      <trkpt lat="51.91958950" lon="38.51051330">
        <ele>192.00000</ele>
        <time>2010-01-01T12:35:35Z</time>
      </trkpt>
      <trkpt lat="51.91245560" lon="38.50798130">
        <ele>169.00000</ele>
        <time>2010-01-01T12:40:28Z</time>
      </trkpt>
      <trkpt lat="51.91065540" lon="38.50763790">
        <ele>171.00000</ele>
        <time>2010-01-01T12:41:40Z</time>
      </trkpt>
      <trkpt lat="51.90888160" lon="38.50918290">
        <ele>175.00000</ele>
        <time>2010-01-01T12:43:01Z</time>
      </trkpt>
      <trkpt lat="51.90663120" lon="38.51351730">
        <ele>173.00000</ele>
        <time>2010-01-01T12:45:21Z</time>
      </trkpt>
      <trkpt lat="51.90030290" lon="38.51643560">
        <ele>178.00000</ele>
        <time>2010-01-01T12:49:44Z</time>
      </trkpt>
      <trkpt lat="51.89919070" lon="38.51815220">
        <ele>182.00000</ele>
        <time>2010-01-01T12:50:45Z</time>
      </trkpt>
      <trkpt lat="51.89919070" lon="38.52102750">
        <ele>173.00000</ele>
        <time>2010-01-01T12:51:56Z</time>
      </trkpt>
      <trkpt lat="51.89797260" lon="38.52373120">
        <ele>173.00000</ele>
        <time>2010-01-01T12:53:19Z</time>
      </trkpt>
      <trkpt lat="51.89362940" lon="38.52643480">
        <ele>169.00000</ele>
        <time>2010-01-01T12:56:25Z</time>
      </trkpt>
      <trkpt lat="51.88692840" lon="38.53072640">
        <ele>170.00000</ele>
        <time>2010-01-01T13:01:14Z</time>
      </trkpt>
      <trkpt lat="51.88245170" lon="38.53553290">
        <ele>163.00000</ele>
        <time>2010-01-01T13:04:49Z</time>
      </trkpt>
      <trkpt lat="51.87739170" lon="38.53617660">
        <ele>159.00000</ele>
        <time>2010-01-01T13:08:12Z</time>
      </trkpt>
      <trkpt lat="51.87349700" lon="38.53939530">
        <ele>163.00000</ele>
        <time>2010-01-01T13:11:07Z</time>
      </trkpt>
      <trkpt lat="51.86840950" lon="38.54403010">
        <ele>163.00000</ele>
        <time>2010-01-01T13:15:01Z</time>
      </trkpt>
      <trkpt lat="51.86692550" lon="38.54845040">
        <ele>151.00000</ele>
        <time>2010-01-01T13:17:05Z</time>
      </trkpt>
      <trkpt lat="51.86236730" lon="38.55334280">
        <ele>160.00000</ele>
        <time>2010-01-01T13:20:44Z</time>
      </trkpt>
      <trkpt lat="51.85423030" lon="38.53385920">
        <ele>208.00000</ele>
        <time>2010-01-01T13:30:25Z</time>
      </trkpt>
      <trkpt lat="51.84264510" lon="38.51175780">
        <ele>221.00000</ele>
        <time>2010-01-01T13:42:22Z</time>
      </trkpt>
      <trkpt lat="51.83657300" lon="38.50055690">
        <ele>237.00000</ele>
        <time>2010-01-01T13:48:31Z</time>
      </trkpt>
      <trkpt lat="51.83177310" lon="38.49776740">
        <ele>224.00000</ele>
        <time>2010-01-01T13:51:55Z</time>
      </trkpt>
      <trkpt lat="51.81914750" lon="38.49175930">
        <ele>141.00000</ele>
        <time>2010-01-01T14:00:42Z</time>
      </trkpt>
      <trkpt lat="51.81524770" lon="38.48587980">
        <ele>160.00000</ele>
        <time>2010-01-01T14:04:15Z</time>
      </trkpt>
      <trkpt lat="51.81264770" lon="38.49034300">
        <ele>152.00000</ele>
        <time>2010-01-01T14:06:47Z</time>
      </trkpt>
      <trkpt lat="51.80877390" lon="38.49377630">
        <ele>151.00000</ele>
        <time>2010-01-01T14:09:44Z</time>
      </trkpt>
      <trkpt lat="51.80572240" lon="38.49776740">
        <ele>158.00000</ele>
        <time>2010-01-01T14:12:21Z</time>
      </trkpt>
      <trkpt lat="51.80482020" lon="38.50227350">
        <ele>157.00000</ele>
        <time>2010-01-01T14:14:18Z</time>
      </trkpt>
      <trkpt lat="51.80322800" lon="38.51587770">
        <ele>155.00000</ele>
        <time>2010-01-01T14:20:01Z</time>
      </trkpt>
      <trkpt lat="51.80150300" lon="38.52197170">
        <ele>154.00000</ele>
        <time>2010-01-01T14:22:47Z</time>
      </trkpt>
      <trkpt lat="51.80110490" lon="38.52570530">
        <ele>152.00000</ele>
        <time>2010-01-01T14:24:20Z</time>
      </trkpt>
      <trkpt lat="51.80184800" lon="38.53055470">
        <ele>152.00000</ele>
        <time>2010-01-01T14:26:24Z</time>
      </trkpt>
      <trkpt lat="51.80232570" lon="38.53561870">
        <ele>155.00000</ele>
        <time>2010-01-01T14:28:31Z</time>
      </trkpt>
      <trkpt lat="51.80221950" lon="38.54089730">
        <ele>152.00000</ele>
        <time>2010-01-01T14:30:42Z</time>
      </trkpt>
      <trkpt lat="51.80139680" lon="38.54510300">
        <ele>148.00000</ele>
        <time>2010-01-01T14:32:31Z</time>
      </trkpt>
      <trkpt lat="51.79736280" lon="38.55647560">
        <ele>146.00000</ele>
        <time>2010-01-01T14:37:55Z</time>
      </trkpt>
      <trkpt lat="51.79614190" lon="38.56441490">
        <ele>144.00000</ele>
        <time>2010-01-01T14:41:18Z</time>
      </trkpt>
      <trkpt lat="51.79439020" lon="38.57892030">
        <ele>144.00000</ele>
        <time>2010-01-01T14:47:24Z</time>
      </trkpt>
      <trkpt lat="51.79354080" lon="38.58248230">
        <ele>142.00000</ele>
        <time>2010-01-01T14:48:58Z</time>
      </trkpt>
      <trkpt lat="51.79231980" lon="38.58497140">
        <ele>151.00000</ele>
        <time>2010-01-01T14:50:17Z</time>
      </trkpt>
      <trkpt lat="51.78791330" lon="38.58784670">
        <ele>171.00000</ele>
        <time>2010-01-01T14:53:27Z</time>
      </trkpt>
      <trkpt lat="51.77867430" lon="38.61127850">
        <ele>179.00000</ele>
        <time>2010-01-01T15:04:55Z</time>
      </trkpt>
      <trkpt lat="51.77107980" lon="38.63076210">
        <ele>185.00000</ele>
        <time>2010-01-01T15:14:26Z</time>
      </trkpt>
      <trkpt lat="51.76587450" lon="38.65264890">
        <ele>168.00000</ele>
        <time>2010-01-01T15:24:07Z</time>
      </trkpt>
      <trkpt lat="51.75710910" lon="38.67101660">
        <ele>133.00000</ele>
        <time>2010-01-01T15:33:41Z</time>
      </trkpt>
      <trkpt lat="51.75696300" lon="38.67151020">
        <ele>130.00000</ele>
        <time>2010-01-01T15:33:55Z</time>
      </trkpt>
      <trkpt lat="51.75028150" lon="38.66543760">
        <ele>134.00000</ele>
        <time>2010-01-01T15:39:02Z</time>
      </trkpt>
      <trkpt lat="51.74694700" lon="38.66163960">
        <ele>142.00000</ele>
        <time>2010-01-01T15:41:45Z</time>
      </trkpt>
      <trkpt lat="51.74254940" lon="38.65262740">
        <ele>158.00000</ele>
        <time>2010-01-01T15:46:29Z</time>
      </trkpt>
      <trkpt lat="51.74159280" lon="38.65376470">
        <ele>156.00000</ele>
        <time>2010-01-01T15:47:17Z</time>
      </trkpt>
      <trkpt lat="51.73861640" lon="38.65204810">
        <ele>158.00000</ele>
        <time>2010-01-01T15:49:23Z</time>
      </trkpt>
      <trkpt lat="51.73792550" lon="38.66312020">
        <ele>150.00000</ele>
        <time>2010-01-01T15:53:59Z</time>
      </trkpt>
      <trkpt lat="51.73750030" lon="38.66560930">
        <ele>164.00000</ele>
        <time>2010-01-01T15:55:03Z</time>
      </trkpt>
      <trkpt lat="51.73468310" lon="38.67161750">
        <ele>188.00000</ele>
        <time>2010-01-01T15:58:10Z</time>
      </trkpt>
      <trkpt lat="51.72553950" lon="38.68380540">
        <ele>212.00000</ele>
        <time>2010-01-01T16:06:05Z</time>
      </trkpt>
      <trkpt lat="51.72309380" lon="38.68741030">
        <ele>218.00000</ele>
        <time>2010-01-01T16:08:17Z</time>
      </trkpt>
      <trkpt lat="51.71745750" lon="38.69951240">
        <ele>210.00000</ele>
        <time>2010-01-01T16:14:33Z</time>
      </trkpt>
      <trkpt lat="51.71112920" lon="38.70946880">
        <ele>205.00000</ele>
        <time>2010-01-01T16:20:27Z</time>
      </trkpt>
      <trkpt lat="51.70852320" lon="38.71667860">
        <ele>204.00000</ele>
        <time>2010-01-01T16:23:54Z</time>
      </trkpt>
      <trkpt lat="51.70964000" lon="38.72002600">
        <ele>201.00000</ele>
        <time>2010-01-01T16:25:28Z</time>
      </trkpt>
      <trkpt lat="51.71166100" lon="38.72886650">
        <ele>199.00000</ele>
        <time>2010-01-01T16:29:22Z</time>
      </trkpt>
      <trkpt lat="51.71330960" lon="38.73693460">
        <ele>199.00000</ele>
        <time>2010-01-01T16:32:52Z</time>
      </trkpt>
      <trkpt lat="51.71235240" lon="38.74320030">
        <ele>201.00000</ele>
        <time>2010-01-01T16:35:32Z</time>
      </trkpt>
      <trkpt lat="51.71144830" lon="38.75221250">
        <ele>200.00000</ele>
        <time>2010-01-01T16:39:19Z</time>
      </trkpt>
      <trkpt lat="51.71001230" lon="38.76723280">
        <ele>186.00000</ele>
        <time>2010-01-01T16:45:36Z</time>
      </trkpt>
      <trkpt lat="51.70511910" lon="38.78937720">
        <ele>181.00000</ele>
        <time>2010-01-01T16:55:19Z</time>
      </trkpt>
      <trkpt lat="51.69964020" lon="38.81658550">
        <ele>183.00000</ele>
        <time>2010-01-01T17:07:09Z</time>
      </trkpt>
      <trkpt lat="51.69304340" lon="38.83581160">
        <ele>173.00000</ele>
        <time>2010-01-01T17:16:14Z</time>
      </trkpt>
      <trkpt lat="51.69160680" lon="38.84353630">
        <ele>173.00000</ele>
        <time>2010-01-01T17:19:34Z</time>
      </trkpt>
      <trkpt lat="51.68985100" lon="38.85306350">
        <ele>167.00000</ele>
        <time>2010-01-01T17:23:41Z</time>
      </trkpt>
      <trkpt lat="51.68878680" lon="38.85572430">
        <ele>164.00000</ele>
        <time>2010-01-01T17:24:59Z</time>
      </trkpt>
      <trkpt lat="51.68383810" lon="38.86216160">
        <ele>146.00000</ele>
        <time>2010-01-01T17:29:14Z</time>
      </trkpt>
      <trkpt lat="51.68011290" lon="38.86653900">
        <ele>123.00000</ele>
        <time>2010-01-01T17:32:18Z</time>
      </trkpt>
      <trkpt lat="51.67968710" lon="38.87065880">
        <ele>127.00000</ele>
        <time>2010-01-01T17:34:02Z</time>
      </trkpt>
      <trkpt lat="51.67846310" lon="38.87503620">
        <ele>127.00000</ele>
        <time>2010-01-01T17:36:01Z</time>
      </trkpt>
      <trkpt lat="51.67617450" lon="38.88361930">
        <ele>126.00000</ele>
        <time>2010-01-01T17:39:53Z</time>
      </trkpt>
      <trkpt lat="51.67479060" lon="38.88610830">
        <ele>134.00000</ele>
        <time>2010-01-01T17:41:16Z</time>
      </trkpt>
      <trkpt lat="51.67212930" lon="38.88731000">
        <ele>152.00000</ele>
        <time>2010-01-01T17:43:07Z</time>
      </trkpt>
      <trkpt lat="51.66819020" lon="38.88851160">
        <ele>160.00000</ele>
        <time>2010-01-01T17:45:47Z</time>
      </trkpt>
      <trkpt lat="51.65919280" lon="38.89031410">
        <ele>168.00000</ele>
        <time>2010-01-01T17:51:50Z</time>
      </trkpt>
      <trkpt lat="51.66047070" lon="38.89829630">
        <ele>164.00000</ele>
        <time>2010-01-01T17:55:15Z</time>
      </trkpt>
      <trkpt lat="51.66110960" lon="38.90284530">
        <ele>162.00000</ele>
        <time>2010-01-01T17:57:11Z</time>
      </trkpt>
      <trkpt lat="51.66153550" lon="38.90490530">
        <ele>162.00000</ele>
        <time>2010-01-01T17:58:05Z</time>
      </trkpt>
      <trkpt lat="51.66116280" lon="38.90610690">
        <ele>162.00000</ele>
        <time>2010-01-01T17:58:38Z</time>
      </trkpt>
      <trkpt lat="51.66201470" lon="38.90868180">
        <ele>163.00000</ele>
        <time>2010-01-01T17:59:50Z</time>
      </trkpt>
      <trkpt lat="51.66611400" lon="38.91760820">
        <ele>158.00000</ele>
        <time>2010-01-01T18:04:26Z</time>
      </trkpt>
      <trkpt lat="51.67186310" lon="38.93228530">
        <ele>166.00000</ele>
        <time>2010-01-01T18:11:37Z</time>
      </trkpt>
      <trkpt lat="51.67856950" lon="38.95391460">
        <ele>159.00000</ele>
        <time>2010-01-01T18:21:37Z</time>
      </trkpt>
      <trkpt lat="51.68186910" lon="38.96618840">
        <ele>150.00000</ele>
        <time>2010-01-01T18:27:09Z</time>
      </trkpt>
      <trkpt lat="51.68351880" lon="38.97399900">
        <ele>145.00000</ele>
        <time>2010-01-01T18:30:34Z</time>
      </trkpt>
      <trkpt lat="51.68335920" lon="38.97717470">
        <ele>137.00000</ele>
        <time>2010-01-01T18:31:53Z</time>
      </trkpt>
      <trkpt lat="51.68479600" lon="38.97854800">
        <ele>142.00000</ele>
        <time>2010-01-01T18:33:00Z</time>
      </trkpt>
      <trkpt lat="51.68804190" lon="38.98721690">
        <ele>149.00000</ele>
        <time>2010-01-01T18:37:12Z</time>
      </trkpt>
      <trkpt lat="51.69235170" lon="38.99837490">
        <ele>148.00000</ele>
        <time>2010-01-01T18:42:38Z</time>
      </trkpt>
      <trkpt lat="51.69293700" lon="38.99957650">
        <ele>148.00000</ele>
        <time>2010-01-01T18:43:16Z</time>
      </trkpt>
      <trkpt lat="51.69080870" lon="39.01227950">
        <ele>165.00000</ele>
        <time>2010-01-01T18:48:42Z</time>
      </trkpt>
      <trkpt lat="51.68990420" lon="39.01648520">
        <ele>160.00000</ele>
        <time>2010-01-01T18:50:33Z</time>
      </trkpt>
      <trkpt lat="51.68857400" lon="39.01742930">
        <ele>154.00000</ele>
        <time>2010-01-01T18:51:31Z</time>
      </trkpt>
      <trkpt lat="51.68756300" lon="39.01948920">
        <ele>147.00000</ele>
        <time>2010-01-01T18:52:36Z</time>
      </trkpt>
      <trkpt lat="51.68426380" lon="39.02678480">
        <ele>117.00000</ele>
        <time>2010-01-01T18:56:20Z</time>
      </trkpt>
      <trkpt lat="51.68288020" lon="39.02755730">
        <ele>117.00000</ele>
        <time>2010-01-01T18:57:19Z</time>
      </trkpt>
      <trkpt lat="51.68069830" lon="39.02326580">
        <ele>116.00000</ele>
        <time>2010-01-01T18:59:37Z</time>
      </trkpt>
      <trkpt lat="51.68000650" lon="39.02403830">
        <ele>117.00000</ele>
        <time>2010-01-01T19:00:10Z</time>
      </trkpt>
      <trkpt lat="51.67952750" lon="39.02987480">
        <ele>111.00000</ele>
        <time>2010-01-01T19:02:36Z</time>
      </trkpt>
      <trkpt lat="51.67734540" lon="39.03038970">
        <ele>106.00000</ele>
        <time>2010-01-01T19:04:05Z</time>
      </trkpt>
      <trkpt lat="51.67447130" lon="39.03305050">
        <ele>101.00000</ele>
        <time>2010-01-01T19:06:17Z</time>
      </trkpt>
      <trkpt lat="51.67207600" lon="39.03493880">
        <ele>94.000000</ele>
        <time>2010-01-01T19:08:04Z</time>
      </trkpt>
      <trkpt lat="51.67000010" lon="39.03674120">
        <ele>122.00000</ele>
        <time>2010-01-01T19:09:38Z</time>
      </trkpt>
      <trkpt lat="51.66707220" lon="39.03811450">
        <ele>134.00000</ele>
        <time>2010-01-01T19:11:40Z</time>
      </trkpt>
      <trkpt lat="51.66488960" lon="39.03923030">
        <ele>142.00000</ele>
        <time>2010-01-01T19:13:12Z</time>
      </trkpt>
      <trkpt lat="51.66281330" lon="39.04017440">
        <ele>145.00000</ele>
        <time>2010-01-01T19:14:38Z</time>
      </trkpt>
      <trkpt lat="51.66047070" lon="39.03845780">
        <ele>156.00000</ele>
        <time>2010-01-01T19:16:21Z</time>
      </trkpt>
      <trkpt lat="51.65850060" lon="39.03897280">
        <ele>156.00000</ele>
        <time>2010-01-01T19:17:41Z</time>
      </trkpt>
      <trkpt lat="51.65626430" lon="39.04008860">
        <ele>151.00000</ele>
        <time>2010-01-01T19:19:15Z</time>
      </trkpt>
      <trkpt lat="51.65232380" lon="39.04335020">
        <ele>137.00000</ele>
        <time>2010-01-01T19:22:12Z</time>
      </trkpt>
      <trkpt lat="51.65120550" lon="39.06326290">
        <ele>101.00000</ele>
        <time>2010-01-01T19:30:29Z</time>
      </trkpt>
      <trkpt lat="51.64960790" lon="39.08266060">
        <ele>100.00000</ele>
        <time>2010-01-01T19:38:35Z</time>
      </trkpt>
      <trkpt lat="51.64886230" lon="39.09167280">
        <ele>101.00000</ele>
        <time>2010-01-01T19:42:21Z</time>
      </trkpt>
      <trkpt lat="51.64817000" lon="39.10034170">
        <ele>117.00000</ele>
        <time>2010-01-01T19:45:58Z</time>
      </trkpt>
      <trkpt lat="51.64625270" lon="39.12643430">
        <ele>163.00000</ele>
        <time>2010-01-01T19:56:51Z</time>
      </trkpt>
      <trkpt lat="51.64556030" lon="39.13450240">
        <ele>162.00000</ele>
        <time>2010-01-01T20:00:13Z</time>
      </trkpt>
    </trkseg>
  </trk>
</gpx>

